KLOL/LOL METAR and TAF weather

Enter ICAO airport designator
Station Type Date Time Source
KLOL METAR 2020/10/22 01:53 UTC NOAA

KLOL 220153Z AUTO 32005KT 10SM CLR 19/M02 A2988 RMK AO2 SLP109 T01891017


Station Type Date Time Source
KLOL Decoded METAR 2020/10/22 01:53 UTC NOAA

LOVELOCK DERBY FIELD, NV, United States (KLOL) 40-04N 118-34W 1189M
Oct 21, 2020 - 09:53 PM EDT / 2020.10.22 0153 UTC
Wind: from the NW (320 degrees) at 6 MPH (5 KT):0
Visibility: 10 mile(s):0
Sky conditions: clear
Temperature: 66.0 F (18.9 C)
Dew Point: 28.9 F (-1.7 C)
Relative Humidity: 24%
Pressure (altimeter): 29.88 in. Hg (1011 hPa)
ob: KLOL 220153Z AUTO 32005KT 10SM CLR 19/M02 A2988 RMK AO2 SLP109 T01891017
cycle: 2

Station Type Date Time Source
KLOL TAF 2010/01/05 05:22 UTC NOAA

TAF KLOL 050522Z 0506/0606 00000KT 1/4SM FZFG VV001
FM052000 VRB03KT 3SM BR OVC002
AMD NOT SKED

Example: see airport list